createdAt,value
2023-03-06T00:01:33.008Z,10.70
2023-03-06T00:04:05.465Z,9.10
2023-03-06T00:06:37.759Z,9.20
2023-03-06T00:09:11.019Z,8.30
2023-03-06T00:11:43.418Z,7.60
2023-03-06T00:14:16.220Z,6.50
2023-03-06T00:16:48.375Z,6.50
2023-03-06T00:19:20.666Z,6.90
2023-03-06T00:21:53.016Z,7.10
2023-03-06T00:24:25.497Z,6.50
2023-03-06T00:26:57.954Z,6.30
2023-03-06T00:29:30.298Z,6.20
2023-03-06T00:32:03.168Z,5.80
2023-03-06T00:34:35.388Z,5.70
2023-03-06T00:37:07.702Z,5.70
2023-03-06T00:39:39.935Z,7.90
2023-03-06T00:42:12.185Z,6.60
2023-03-06T00:44:44.586Z,5.80
2023-03-06T00:47:17.468Z,6.70
2023-03-06T00:49:49.830Z,6.30
2023-03-06T00:52:22.104Z,5.50
2023-03-06T00:54:54.618Z,6.10
2023-03-06T00:57:26.872Z,5.70
2023-03-06T00:59:59.317Z,6.20
2023-03-06T01:02:31.589Z,6.40
2023-03-06T01:05:03.686Z,6.80
2023-03-06T01:07:37.252Z,9.10
2023-03-06T01:10:11.584Z,8.30
2023-03-06T01:12:43.902Z,8.20
2023-03-06T01:15:16.702Z,8.80
2023-03-06T01:17:48.885Z,10.50
2023-03-06T01:20:21.370Z,8.20
2023-03-06T01:22:55.805Z,7.50
2023-03-06T01:25:28.544Z,6.60
2023-03-06T01:28:00.872Z,6.70
2023-03-06T01:30:34.066Z,8.50
2023-03-06T01:33:06.921Z,14.10
2023-03-06T01:35:41.060Z,13.20
2023-03-06T01:38:13.430Z,12.50
2023-03-06T01:40:45.807Z,12.00
2023-03-06T01:43:30.454Z,9.30
2023-03-06T01:46:38.922Z,7.40
2023-03-06T01:49:18.002Z,6.60
2023-03-06T01:51:54.131Z,7.60
2023-03-06T01:54:29.717Z,7.00
2023-03-06T01:57:08.786Z,7.00
2023-03-06T01:59:43.784Z,9.00
2023-03-06T02:02:17.690Z,11.30
2023-03-06T02:04:50.100Z,11.40
2023-03-06T02:07:24.551Z,11.00
2023-03-06T02:09:56.785Z,9.80
2023-03-06T02:12:30.355Z,9.10
2023-03-06T02:15:02.494Z,9.70
2023-03-06T02:17:37.324Z,9.00
2023-03-06T02:20:17.617Z,9.70
2023-03-06T02:22:58.382Z,9.70
2023-03-06T02:25:39.664Z,9.60
2023-03-06T02:28:14.116Z,9.70
2023-03-06T02:30:48.966Z,9.80
2023-03-06T02:33:24.748Z,8.70
2023-03-06T02:35:59.376Z,8.70
2023-03-06T02:38:34.337Z,8.90
2023-03-06T02:41:09.986Z,9.80
2023-03-06T02:43:44.706Z,11.60
2023-03-06T02:46:17.137Z,12.30
2023-03-06T02:48:49.313Z,10.50
2023-03-06T02:51:21.899Z,11.90
2023-03-06T02:53:54.932Z,11.60
2023-03-06T02:56:27.301Z,11.40
2023-03-06T02:58:59.638Z,13.40
2023-03-06T03:01:33.169Z,13.60
2023-03-06T03:04:05.504Z,11.10
2023-03-06T03:06:38.224Z,12.80
2023-03-06T03:09:10.880Z,13.90
2023-03-06T03:11:42.977Z,13.10
2023-03-06T03:14:16.828Z,12.90
2023-03-06T03:16:50.545Z,10.80
2023-03-06T03:19:23.128Z,9.50
2023-03-06T03:21:55.946Z,11.10
2023-03-06T03:24:29.221Z,10.10
2023-03-06T03:27:01.509Z,10.30
2023-03-06T03:29:33.738Z,10.80
2023-03-06T03:32:06.961Z,11.20
2023-03-06T03:34:39.141Z,11.70
2023-03-06T03:37:11.573Z,11.70
2023-03-06T03:39:43.778Z,12.60
2023-03-06T03:42:16.909Z,10.60
2023-03-06T03:44:49.557Z,9.00
2023-03-06T03:47:22.281Z,8.40
2023-03-06T03:49:54.717Z,8.40
2023-03-06T03:52:27.590Z,8.10
2023-03-06T03:55:00.061Z,7.50
2023-03-06T03:57:32.638Z,8.30
2023-03-06T04:00:05.663Z,8.00
2023-03-06T04:02:50.796Z,8.70
2023-03-06T04:05:30.216Z,7.20
2023-03-06T04:08:03.438Z,7.80
2023-03-06T04:10:37.310Z,8.30
2023-03-06T04:13:10.138Z,8.50
2023-03-06T04:15:45.072Z,9.40
2023-03-06T04:18:17.838Z,10.10
2023-03-06T04:20:50.942Z,10.30
2023-03-06T04:23:24.364Z,10.20
2023-03-06T04:25:56.650Z,10.20
2023-03-06T04:28:28.813Z,10.30
2023-03-06T04:31:01.592Z,12.30
2023-03-06T04:33:34.889Z,10.80
2023-03-06T04:36:07.745Z,11.40
2023-03-06T04:38:39.973Z,14.20
2023-03-06T04:41:12.209Z,12.30
2023-03-06T04:43:44.477Z,11.60
2023-03-06T04:46:16.591Z,11.60
2023-03-06T04:48:48.707Z,12.20
2023-03-06T04:51:20.923Z,12.00
2023-03-06T04:53:54.172Z,10.50
2023-03-06T04:56:26.380Z,11.90
2023-03-06T04:58:58.683Z,12.10
2023-03-06T05:01:30.841Z,12.50
2023-03-06T05:04:03.005Z,12.20
2023-03-06T05:06:35.152Z,12.50
2023-03-06T05:09:07.580Z,12.50
2023-03-06T05:11:39.727Z,11.70
2023-03-06T05:14:14.126Z,12.50
2023-03-06T05:16:46.225Z,12.40
2023-03-06T05:19:18.393Z,14.30
2023-03-06T05:21:50.675Z,12.50
2023-03-06T05:24:22.888Z,15.20
2023-03-06T05:26:55.109Z,12.10
2023-03-06T05:29:27.377Z,12.10
2023-03-06T05:32:00.128Z,11.30
2023-03-06T05:34:32.537Z,12.10
2023-03-06T05:37:04.812Z,11.90
2023-03-06T05:39:37.003Z,13.00
2023-03-06T05:42:09.560Z,13.10
2023-03-06T05:44:42.308Z,13.40
2023-03-06T05:47:14.667Z,13.40
2023-03-06T05:49:46.718Z,13.50
2023-03-06T05:52:18.918Z,13.40
2023-03-06T05:54:53.274Z,12.90
2023-03-06T05:57:26.423Z,10.90
2023-03-06T05:59:58.789Z,11.70
2023-03-06T06:02:30.946Z,11.90
2023-03-06T06:05:04.422Z,12.30
2023-03-06T06:07:37.062Z,13.20
2023-03-06T06:10:12.328Z,13.30
2023-03-06T06:12:44.711Z,13.20
2023-03-06T06:15:16.978Z,13.10
2023-03-06T06:17:49.135Z,11.80
2023-03-06T06:20:21.773Z,11.60
2023-03-06T06:22:54.095Z,11.60
2023-03-06T06:25:26.357Z,11.50
2023-03-06T06:27:59.412Z,13.30
2023-03-06T06:30:32.044Z,14.00
2023-03-06T06:33:04.174Z,13.40
2023-03-06T06:35:39.447Z,13.60
2023-03-06T06:38:11.764Z,11.30
2023-03-06T06:40:58.415Z,10.80
2023-03-06T06:43:39.358Z,10.70
2023-03-06T06:46:49.719Z,10.50
2023-03-06T06:49:04.714Z,9.50
2023-03-06T06:51:37.514Z,10.40
2023-03-06T06:54:10.896Z,12.60
2023-03-06T06:56:43.138Z,13.50
2023-03-06T06:59:17.157Z,11.30
2023-03-06T07:01:49.812Z,11.10
2023-03-06T07:04:22.546Z,12.40
2023-03-06T07:06:58.175Z,12.80
2023-03-06T07:09:32.424Z,14.30
2023-03-06T07:12:05.075Z,17.00
2023-03-06T07:14:39.622Z,11.60
2023-03-06T07:17:12.094Z,9.00
2023-03-06T07:19:44.361Z,9.80
2023-03-06T07:22:16.998Z,9.50
2023-03-06T07:24:49.235Z,9.60
2023-03-06T07:27:23.191Z,10.30
2023-03-06T07:29:55.454Z,10.60
2023-03-06T07:32:27.962Z,9.30
2023-03-06T07:35:17.599Z,9.50
2023-03-06T07:37:51.970Z,7.90
2023-03-06T07:40:24.819Z,8.40
2023-03-06T07:43:12.991Z,8.10
2023-03-06T07:46:01.571Z,8.40
2023-03-06T07:48:34.395Z,9.20
2023-03-06T07:51:09.684Z,8.70
2023-03-06T07:53:41.855Z,9.20
2023-03-06T07:56:15.208Z,8.50
2023-03-06T07:58:49.101Z,7.70
2023-03-06T08:01:24.476Z,8.10
2023-03-06T08:03:59.172Z,8.00
2023-03-06T08:06:31.967Z,8.60
2023-03-06T08:09:04.929Z,9.60
2023-03-06T08:11:37.021Z,8.10
2023-03-06T08:14:09.256Z,8.40
2023-03-06T08:16:41.410Z,8.60
2023-03-06T08:19:13.520Z,8.00
2023-03-06T08:21:45.891Z,7.10
2023-03-06T08:24:18.748Z,7.90
2023-03-06T08:26:51.112Z,7.70
2023-03-06T08:29:23.547Z,8.60
2023-03-06T08:31:56.405Z,7.30
2023-03-06T08:34:28.890Z,7.70
2023-03-06T08:37:01.022Z,7.20
2023-03-06T08:39:33.227Z,7.30
2023-03-06T08:42:06.248Z,8.00
2023-03-06T08:44:38.898Z,8.90
2023-03-06T08:47:11.269Z,8.40
2023-03-06T08:49:43.473Z,9.20
2023-03-06T08:52:17.253Z,8.70
2023-03-06T08:54:49.814Z,8.50
2023-03-06T08:57:22.117Z,8.40
2023-03-06T08:59:54.298Z,8.80
2023-03-06T09:02:26.614Z,9.00
2023-03-06T09:04:59.681Z,7.90
2023-03-06T09:07:32.364Z,9.10
2023-03-06T09:10:05.153Z,7.90
2023-03-06T09:12:49.885Z,8.60
2023-03-06T09:15:24.395Z,6.60
2023-03-06T09:17:56.717Z,6.60
2023-03-06T09:20:29.105Z,6.90
2023-03-06T09:23:01.309Z,6.70
2023-03-06T09:25:33.412Z,6.90
2023-03-06T09:28:11.707Z,6.70
2023-03-06T09:30:45.959Z,7.30
2023-03-06T09:33:19.191Z,6.80
2023-03-06T09:35:53.864Z,7.10
2023-03-06T09:38:27.917Z,6.50
2023-03-06T09:41:09.783Z,7.20
2023-03-06T09:43:44.455Z,6.40
2023-03-06T09:46:24.654Z,6.70
2023-03-06T09:49:13.678Z,6.40
2023-03-06T09:51:56.881Z,7.40
2023-03-06T09:54:38.878Z,6.90
2023-03-06T09:57:19.935Z,6.90
2023-03-06T09:59:56.182Z,6.70
2023-03-06T10:02:34.683Z,6.80
2023-03-06T10:05:13.417Z,6.80
2023-03-06T10:07:52.089Z,6.30
2023-03-06T10:10:27.424Z,5.80
2023-03-06T10:13:07.783Z,9.60
2023-03-06T10:15:46.300Z,6.70
2023-03-06T10:18:18.825Z,7.00
2023-03-06T10:20:59.453Z,6.30
2023-03-06T10:23:50.891Z,6.80
2023-03-06T10:26:28.746Z,6.40
2023-03-06T10:29:19.134Z,6.40
2023-03-06T10:32:01.315Z,5.20
2023-03-06T10:34:38.510Z,5.90
2023-03-06T10:37:20.664Z,4.80
2023-03-06T10:39:58.704Z,5.20
2023-03-06T10:42:31.438Z,5.60
2023-03-06T10:45:13.794Z,5.30
2023-03-06T10:47:46.843Z,5.30
2023-03-06T10:50:29.106Z,5.10
2023-03-06T10:55:39.170Z,5.50
2023-03-06T10:58:24.162Z,5.60
2023-03-06T11:01:09.648Z,6.00
2023-03-06T11:03:41.916Z,5.40
2023-03-06T11:06:16.262Z,5.80
2023-03-06T11:08:48.686Z,5.40
2023-03-06T11:11:37.044Z,5.10
2023-03-06T11:14:17.901Z,5.00
2023-03-06T11:16:53.652Z,5.60
2023-03-06T11:19:29.336Z,6.40
2023-03-06T11:22:09.656Z,5.90
2023-03-06T11:24:45.628Z,4.60
2023-03-06T11:27:30.495Z,5.90
2023-03-06T11:30:05.524Z,6.20
2023-03-06T11:32:46.347Z,4.80
2023-03-06T11:35:24.924Z,4.30
2023-03-06T11:38:01.692Z,5.20
2023-03-06T11:40:38.593Z,5.30
2023-03-06T11:43:23.495Z,4.60
2023-03-06T11:46:03.632Z,4.60
2023-03-06T11:48:42.430Z,5.40
2023-03-06T11:51:20.491Z,4.50
2023-03-06T11:53:53.298Z,4.90
2023-03-06T11:56:33.076Z,5.20
2023-03-06T11:59:29.291Z,3.90
2023-03-06T12:02:17.787Z,4.70
2023-03-06T12:05:01.716Z,4.10
2023-03-06T12:07:39.347Z,5.50
2023-03-06T12:10:23.775Z,5.20
2023-03-06T12:13:20.856Z,4.10
2023-03-06T12:16:36.339Z,5.40
2023-03-06T12:19:26.668Z,4.10
2023-03-06T12:22:18.983Z,4.20
2023-03-06T12:25:05.796Z,4.20
2023-03-06T12:27:49.213Z,5.00
2023-03-06T12:30:37.254Z,5.40
2023-03-06T12:33:21.798Z,4.50
2023-03-06T12:36:14.965Z,5.50
2023-03-06T12:39:07.245Z,6.00
2023-03-06T12:41:57.937Z,5.00
2023-03-06T12:44:48.114Z,5.60
2023-03-06T12:47:24.558Z,5.50
2023-03-06T12:50:01.980Z,5.30
2023-03-06T12:52:36.279Z,4.10
2023-03-06T12:55:15.922Z,4.40
2023-03-06T12:57:49.153Z,7.20
2023-03-06T13:00:55.273Z,6.10
2023-03-06T13:03:36.767Z,6.50
2023-03-06T13:06:49.903Z,5.50
2023-03-06T13:09:35.431Z,5.30
2023-03-06T13:12:22.311Z,3.80
2023-03-06T13:15:00.236Z,4.20
2023-03-06T13:17:41.699Z,6.70
2023-03-06T13:20:44.275Z,5.20
2023-03-06T13:23:50.898Z,5.90
2023-03-06T13:27:00.486Z,6.10
2023-03-06T13:30:22.027Z,6.10
2023-03-06T13:32:55.639Z,4.50
2023-03-06T13:35:57.851Z,6.60
2023-03-06T13:38:54.268Z,5.70
2023-03-06T13:41:54.995Z,5.80
2023-03-06T13:44:51.243Z,5.00
2023-03-06T13:50:50.061Z,5.50
2023-03-06T13:53:52.914Z,6.10
2023-03-06T13:56:50.185Z,5.90
2023-03-06T14:00:03.124Z,5.30
2023-03-06T14:03:20.006Z,6.60
2023-03-06T14:05:55.394Z,4.20
2023-03-06T14:08:30.059Z,4.60
2023-03-06T14:11:07.048Z,6.30
2023-03-06T14:13:47.514Z,7.30
2023-03-06T14:16:24.884Z,5.30
2023-03-06T14:18:58.980Z,5.50
2023-03-06T14:21:38.253Z,5.60
2023-03-06T14:24:18.983Z,6.60
2023-03-06T14:26:53.104Z,6.20
2023-03-06T14:29:27.822Z,5.60
2023-03-06T14:32:01.998Z,7.10
2023-03-06T14:34:41.311Z,6.20
2023-03-06T14:37:23.248Z,5.40
2023-03-06T14:39:56.420Z,5.60
2023-03-06T14:42:30.137Z,6.60
2023-03-06T14:45:16.090Z,5.40
2023-03-06T14:47:52.850Z,5.70
2023-03-06T14:50:28.014Z,5.90
2023-03-06T14:53:04.354Z,4.90
2023-03-06T14:58:16.954Z,6.50
2023-03-06T15:00:55.328Z,6.40
2023-03-06T15:03:35.032Z,5.30
2023-03-06T15:06:08.691Z,4.50
2023-03-06T15:08:49.779Z,4.80
2023-03-06T15:11:23.017Z,5.70
2023-03-06T15:14:05.568Z,4.50
2023-03-06T15:19:18.486Z,7.40
2023-03-06T15:21:52.896Z,7.40
2023-03-06T15:24:36.216Z,8.90
2023-03-06T15:27:18.613Z,9.80
2023-03-06T15:32:35.194Z,6.60
2023-03-06T15:35:29.865Z,6.70
2023-03-06T15:38:03.129Z,9.00
2023-03-06T15:40:35.615Z,9.20
2023-03-06T15:43:13.246Z,7.40
2023-03-06T15:45:45.415Z,7.70
2023-03-06T15:48:20.043Z,7.30
2023-03-06T15:50:52.228Z,7.40
2023-03-06T15:53:24.559Z,6.60
2023-03-06T15:55:57.829Z,7.30
2023-03-06T15:58:36.763Z,8.30
2023-03-06T16:01:09.538Z,7.90
2023-03-06T16:03:41.675Z,7.90
2023-03-06T16:06:19.585Z,7.60
2023-03-06T16:08:52.106Z,9.20
2023-03-06T16:11:35.394Z,9.80
2023-03-06T16:14:18.918Z,8.30
2023-03-06T16:16:51.569Z,7.60
2023-03-06T16:19:27.377Z,8.10
2023-03-06T16:22:00.249Z,8.90
2023-03-06T16:24:32.494Z,8.20
2023-03-06T16:27:05.074Z,8.90
2023-03-06T16:29:37.387Z,9.30
2023-03-06T16:32:12.355Z,8.10
2023-03-06T16:34:44.489Z,7.40
2023-03-06T16:37:17.237Z,12.30
2023-03-06T16:39:49.519Z,12.10
2023-03-06T16:42:23.417Z,10.40
2023-03-06T16:44:55.633Z,7.60
2023-03-06T16:47:27.801Z,7.80
2023-03-06T16:50:02.198Z,7.20
2023-03-06T16:52:34.547Z,6.20
2023-03-06T16:55:07.121Z,6.80
2023-03-06T16:57:39.384Z,6.60
2023-03-06T17:00:13.758Z,5.80
2023-03-06T17:02:49.177Z,6.00
2023-03-06T17:05:22.066Z,5.90
2023-03-06T17:07:54.616Z,5.10
2023-03-06T17:10:27.404Z,5.60
2023-03-06T17:13:00.598Z,6.10
2023-03-06T17:15:33.243Z,6.00
2023-03-06T17:18:05.865Z,5.20
2023-03-06T17:20:38.687Z,5.50
2023-03-06T17:23:10.826Z,7.40
2023-03-06T17:25:43.076Z,7.80
2023-03-06T17:28:15.684Z,5.60
2023-03-06T17:30:47.880Z,5.00
2023-03-06T17:33:20.032Z,5.20
2023-03-06T17:35:52.134Z,6.80
2023-03-06T17:38:24.337Z,7.40
2023-03-06T17:40:56.595Z,7.10
2023-03-06T17:43:28.806Z,6.00
2023-03-06T17:46:05.498Z,6.10
2023-03-06T17:48:37.974Z,5.70
2023-03-06T17:51:10.824Z,7.20
2023-03-06T17:53:43.073Z,6.00
2023-03-06T17:56:16.782Z,7.60
2023-03-06T17:58:49.092Z,8.20
2023-03-06T18:01:23.355Z,7.90
2023-03-06T18:03:56.467Z,7.70
2023-03-06T18:06:30.464Z,7.40
2023-03-06T18:09:03.878Z,7.60
2023-03-06T18:11:37.344Z,7.00
2023-03-06T18:14:10.761Z,7.50
2023-03-06T18:16:43.154Z,7.30
2023-03-06T18:19:16.654Z,6.50
2023-03-06T18:21:49.192Z,6.10
2023-03-06T18:24:21.631Z,6.50
2023-03-06T18:26:53.994Z,5.80
2023-03-06T18:29:26.211Z,6.10
2023-03-06T18:31:59.470Z,5.60
2023-03-06T18:34:32.081Z,8.10
2023-03-06T18:37:04.338Z,7.90
2023-03-06T18:39:36.648Z,10.70
2023-03-06T18:42:12.415Z,11.60
2023-03-06T18:44:47.939Z,13.50
2023-03-06T18:47:20.473Z,12.50
2023-03-06T18:49:53.205Z,15.70
2023-03-06T18:52:25.842Z,15.30
2023-03-06T18:54:58.513Z,16.90
2023-03-06T18:57:31.382Z,15.90
2023-03-06T19:00:03.720Z,15.50
2023-03-06T19:02:36.105Z,15.30
2023-03-06T19:05:10.987Z,13.40
2023-03-06T19:07:43.628Z,14.00
2023-03-06T19:10:16.067Z,15.30
2023-03-06T19:12:48.473Z,14.10
2023-03-06T19:15:20.941Z,13.00
2023-03-06T19:17:53.514Z,12.00
2023-03-06T19:20:27.014Z,13.20
2023-03-06T19:22:59.241Z,13.90
2023-03-06T19:25:31.621Z,12.80
2023-03-06T19:28:04.162Z,14.00
2023-03-06T19:30:38.396Z,12.40
2023-03-06T19:33:10.684Z,10.80
2023-03-06T19:35:43.048Z,9.90
2023-03-06T19:38:15.335Z,10.60
2023-03-06T19:40:52.801Z,10.80
2023-03-06T19:43:25.193Z,11.20
2023-03-06T19:45:57.926Z,11.10
2023-03-06T19:48:30.175Z,11.00
2023-03-06T19:51:07.782Z,10.90
2023-03-06T19:53:40.708Z,15.10
2023-03-06T19:56:16.123Z,19.20
2023-03-06T19:58:48.452Z,18.50
2023-03-06T20:01:22.534Z,20.50
2023-03-06T20:03:59.089Z,14.70
2023-03-06T20:06:36.782Z,14.50
2023-03-06T20:09:10.442Z,10.60
2023-03-06T20:11:42.654Z,9.70
2023-03-06T20:14:15.561Z,12.90
2023-03-06T20:16:47.728Z,11.60
2023-03-06T20:19:22.024Z,8.40
2023-03-06T20:21:54.345Z,8.10
2023-03-06T20:24:26.677Z,7.90
2023-03-06T20:26:59.602Z,9.70
2023-03-06T20:29:31.710Z,8.80
2023-03-06T20:32:03.886Z,11.00
2023-03-06T20:34:39.097Z,11.20
2023-03-06T20:37:12.045Z,9.90
2023-03-06T20:39:44.368Z,7.90
2023-03-06T20:42:17.847Z,8.00
2023-03-06T20:44:49.918Z,9.40
2023-03-06T20:47:22.168Z,8.90
2023-03-06T20:49:54.368Z,8.40
2023-03-06T20:52:26.552Z,8.40
2023-03-06T20:54:58.744Z,8.80
2023-03-06T20:57:31.010Z,10.20
2023-03-06T21:00:04.059Z,11.70
2023-03-06T21:02:36.533Z,12.10
2023-03-06T21:05:10.024Z,13.60
2023-03-06T21:07:42.217Z,15.50
2023-03-06T21:10:15.404Z,17.60
2023-03-06T21:12:47.495Z,16.70
2023-03-06T21:15:20.322Z,16.80
2023-03-06T21:17:52.492Z,15.50
2023-03-06T21:20:27.456Z,15.20
2023-03-06T21:23:03.751Z,14.30
2023-03-06T21:28:06.848Z,11.60
2023-03-06T21:30:39.074Z,12.10
2023-03-06T21:33:11.762Z,11.50
2023-03-06T21:35:44.790Z,10.80
2023-03-06T21:38:17.585Z,9.70
2023-03-06T21:40:49.893Z,10.70
2023-03-06T21:43:21.999Z,10.10
2023-03-06T21:45:57.647Z,9.50
2023-03-06T21:48:29.936Z,11.30
2023-03-06T21:51:11.549Z,11.60
2023-03-06T21:53:47.050Z,11.80
2023-03-06T21:56:23.356Z,11.50
2023-03-06T22:01:28.529Z,10.20
2023-03-06T22:04:01.232Z,9.80
2023-03-06T22:06:34.068Z,14.10
2023-03-06T22:09:06.393Z,15.40
2023-03-06T22:11:38.815Z,16.50
2023-03-06T22:14:10.924Z,13.40
2023-03-06T22:16:43.067Z,14.30
2023-03-06T22:19:15.851Z,14.70
2023-03-06T22:21:48.024Z,13.80
2023-03-06T22:24:20.183Z,13.10
2023-03-06T22:26:52.338Z,13.30
2023-03-06T22:29:25.039Z,12.70
2023-03-06T22:31:57.177Z,14.50
2023-03-06T22:34:29.549Z,15.90
2023-03-06T22:37:02.111Z,12.10
2023-03-06T22:39:34.554Z,11.10
2023-03-06T22:42:07.494Z,10.50
2023-03-06T22:44:39.668Z,12.00
2023-03-06T22:47:11.932Z,11.50
2023-03-06T22:49:44.196Z,11.30
2023-03-06T22:52:19.657Z,12.30
2023-03-06T22:54:51.894Z,14.70
2023-03-06T22:57:24.095Z,14.60
2023-03-06T22:59:56.465Z,15.30
2023-03-06T23:02:33.055Z,14.90
2023-03-06T23:05:05.491Z,17.70
2023-03-06T23:07:37.632Z,20.30
2023-03-06T23:10:11.485Z,22.50
2023-03-06T23:13:03.399Z,21.80
2023-03-06T23:15:54.639Z,21.10
2023-03-06T23:18:45.477Z,17.70
2023-03-06T23:21:36.406Z,19.40
2023-03-06T23:24:28.808Z,20.20
2023-03-06T23:27:01.030Z,21.80
2023-03-06T23:29:33.207Z,21.30
2023-03-06T23:32:05.710Z,17.90
2023-03-06T23:34:38.006Z,15.20
2023-03-06T23:37:10.166Z,15.80
2023-03-06T23:39:42.603Z,14.40
2023-03-06T23:42:14.971Z,15.80
2023-03-06T23:44:47.349Z,17.20
2023-03-06T23:47:20.157Z,17.60
2023-03-06T23:49:52.268Z,15.60
2023-03-06T23:52:24.508Z,14.30
2023-03-06T23:54:56.780Z,12.60
2023-03-06T23:57:30.314Z,14.60
